Time,TemperatureF,DewpointF,PressureIn,WindDirection,WindDirectionDegrees,WindSpeedMPH,WindSpeedGustMPH,Humidity,HourlyPrecipIn,Conditions,Clouds,dailyrainin,SolarRadiationWatts/m^2,SoftwareType,DateUTC
2014-08-27 00:14:00,72.0,72.0,-100.00,NNE,12,2.0,5.0,99,0.00,,,0.00,0.000000,,2014-08-27 04:14:00,
2014-08-27 00:24:00,72.0,72.0,-100.00,NNE,12,2.0,5.0,99,0.00,,,0.00,0.000000,,2014-08-27 04:24:00,
2014-08-27 00:34:00,72.0,72.0,-100.00,NNE,12,2.0,5.0,99,0.00,,,0.00,0.000000,,2014-08-27 04:34:00,
2014-08-27 00:44:00,72.0,72.0,-100.00,NNE,12,2.0,5.0,99,0.00,,,0.00,0.000000,,2014-08-27 04:44:00,
2014-08-27 01:13:00,71.0,71.0,-100.00,WNW,292,2.0,4.0,100,0.00,,,0.00,0.000000,,2014-08-27 05:13:00,
2014-08-27 01:23:00,71.0,71.0,-100.00,WNW,292,2.0,4.0,100,0.00,,,0.00,0.000000,,2014-08-27 05:23:00,
2014-08-27 01:43:00,71.0,71.0,-100.00,WNW,292,2.0,4.0,100,0.00,,,0.00,0.000000,,2014-08-27 05:43:00,
2014-08-27 02:13:00,70.0,70.0,-100.00,SSE,151,2.0,4.0,100,0.00,,,0.00,0.000000,,2014-08-27 06:13:00,
2014-08-27 02:23:00,70.0,70.0,-100.00,SSE,151,2.0,4.0,100,0.00,,,0.00,0.000000,,2014-08-27 06:23:00,
2014-08-27 02:32:00,70.0,70.0,-100.00,SSE,151,2.0,4.0,100,0.00,,,0.00,0.000000,,2014-08-27 06:32:00,
2014-08-27 02:43:00,70.0,70.0,-100.00,SSE,151,2.0,4.0,100,0.00,,,0.00,0.000000,,2014-08-27 06:43:00,
2014-08-27 03:13:00,69.0,69.0,-100.00,NNW,345,1.0,4.0,100,0.00,,,0.00,0.000000,,2014-08-27 07:13:00,
2014-08-27 03:22:00,69.0,69.0,-100.00,NNW,345,1.0,4.0,100,0.00,,,0.00,0.000000,,2014-08-27 07:22:00,
2014-08-27 03:43:00,69.0,69.0,-100.00,NNW,345,1.0,4.0,100,0.00,,,0.00,0.000000,,2014-08-27 07:43:00,
2014-08-27 04:23:00,69.0,69.0,-100.00,North,-999,0.0,2.0,100,0.00,,,0.00,0.000000,,2014-08-27 08:23:00,
2014-08-27 04:32:00,69.0,69.0,-100.00,North,-999,0.0,2.0,100,0.00,,,0.00,0.000000,,2014-08-27 08:32:00,
2014-08-27 04:42:00,69.0,69.0,-100.00,North,-999,0.0,2.0,100,0.00,,,0.00,0.000000,,2014-08-27 08:42:00,
2014-08-27 05:24:00,68.0,68.0,-100.00,SSE,151,1.0,2.0,100,0.00,,,0.00,0.000000,,2014-08-27 09:24:00,
2014-08-27 06:13:00,67.0,67.0,-100.00,North,-999,0.0,2.0,100,0.00,,,0.00,0.000000,,2014-08-27 10:13:00,
2014-08-27 06:33:00,67.0,67.0,-100.00,North,-999,0.0,2.0,100,0.00,,,0.00,0.000000,,2014-08-27 10:33:00,
2014-08-27 07:13:00,67.0,67.0,-100.00,South,179,1.0,2.0,100,0.00,,,0.00,0.000000,,2014-08-27 11:13:00,
2014-08-27 07:23:00,67.0,67.0,-100.00,South,179,1.0,2.0,100,0.00,,,0.00,0.000000,,2014-08-27 11:23:00,
2014-08-27 07:33:00,67.0,67.0,-100.00,South,179,1.0,2.0,100,0.00,,,0.00,0.000000,,2014-08-27 11:33:00,
2014-08-27 08:12:00,68.0,68.0,-100.00,North,-999,0.0,2.0,100,0.00,,,0.00,16.000000,,2014-08-27 12:12:00,
2014-08-27 08:32:00,68.0,68.0,-100.00,North,-999,0.0,2.0,100,0.00,,,0.00,16.000000,,2014-08-27 12:32:00,
2014-08-27 09:12:00,73.0,73.0,-100.00,NE,43,1.0,2.0,100,0.00,,,0.00,142.000000,,2014-08-27 13:12:00,
2014-08-27 09:22:00,73.0,73.0,-100.00,NE,43,1.0,2.0,100,0.00,,,0.00,142.000000,,2014-08-27 13:22:00,
2014-08-27 09:42:00,73.0,73.0,-100.00,NE,43,1.0,2.0,100,0.00,,,0.00,142.000000,,2014-08-27 13:42:00,
2014-08-27 10:43:00,81.0,74.0,-100.00,WSW,247,1.0,3.0,80,0.00,,,0.00,319.000000,,2014-08-27 14:43:00,
2014-08-27 11:44:00,84.0,74.0,-100.00,West,266,3.0,5.0,71,0.00,,,0.00,478.000000,,2014-08-27 15:44:00,
2014-08-27 12:13:00,87.0,74.0,-100.00,NNW,339,2.0,8.0,66,0.00,,,0.00,647.000000,,2014-08-27 16:13:00,
2014-08-27 12:23:00,87.0,74.0,-100.00,NNW,339,2.0,8.0,66,0.00,,,0.00,647.000000,,2014-08-27 16:23:00,
2014-08-27 12:43:00,87.0,74.0,-100.00,NNW,339,2.0,8.0,66,0.00,,,0.00,647.000000,,2014-08-27 16:43:00,
2014-08-27 13:13:00,88.0,75.0,-100.00,WSW,248,4.0,8.0,65,0.00,,,0.00,789.000000,,2014-08-27 17:13:00,
2014-08-27 13:24:00,88.0,75.0,-100.00,WSW,248,4.0,8.0,65,0.00,,,0.00,789.000000,,2014-08-27 17:24:00,
2014-08-27 13:34:00,88.0,75.0,-100.00,WSW,248,4.0,8.0,65,0.00,,,0.00,789.000000,,2014-08-27 17:34:00,
2014-08-27 14:13:00,88.0,73.0,-100.00,NNW,331,6.0,15.0,62,0.00,,,0.00,829.000000,,2014-08-27 18:13:00,
2014-08-27 14:22:00,88.0,73.0,-100.00,NNW,331,6.0,15.0,62,0.00,,,0.00,829.000000,,2014-08-27 18:22:00,
2014-08-27 15:12:00,88.0,75.0,-100.00,NNW,337,5.0,8.0,65,0.00,,,0.00,708.000000,,2014-08-27 19:12:00,
2014-08-27 15:22:00,88.0,75.0,-100.00,NNW,337,5.0,8.0,65,0.00,,,0.00,708.000000,,2014-08-27 19:22:00,
2014-08-27 15:32:00,88.0,75.0,-100.00,NNW,337,5.0,8.0,65,0.00,,,0.00,708.000000,,2014-08-27 19:32:00,
2014-08-27 15:42:00,88.0,75.0,-100.00,NNW,337,5.0,8.0,65,0.00,,,0.00,708.000000,,2014-08-27 19:42:00,
2014-08-27 16:12:00,89.0,73.0,-100.00,NW,318,6.0,11.0,59,0.00,,,0.00,730.000000,,2014-08-27 20:12:00,
2014-08-27 16:24:00,89.0,73.0,-100.00,NW,318,6.0,11.0,59,0.00,,,0.00,730.000000,,2014-08-27 20:24:00,
2014-08-27 16:33:00,89.0,73.0,-100.00,NW,318,6.0,11.0,59,0.00,,,0.00,730.000000,,2014-08-27 20:33:00,
2014-08-27 17:22:00,89.0,72.0,-100.00,NNW,342,7.0,11.0,57,0.00,,,0.00,575.000000,,2014-08-27 21:22:00,
2014-08-27 17:44:00,89.0,72.0,-100.00,NNW,342,7.0,11.0,57,0.00,,,0.00,575.000000,,2014-08-27 21:44:00,
2014-08-27 18:13:00,88.0,72.0,-100.00,North,352,6.0,12.0,60,0.00,,,0.00,501.000000,,2014-08-27 22:13:00,
2014-08-27 18:24:00,88.0,72.0,-100.00,North,352,6.0,12.0,60,0.00,,,0.00,501.000000,,2014-08-27 22:24:00,
2014-08-27 18:43:00,88.0,72.0,-100.00,North,352,6.0,12.0,60,0.00,,,0.00,501.000000,,2014-08-27 22:43:00,
2014-08-27 19:12:00,86.0,72.0,-100.00,North,350,5.0,11.0,63,0.00,,,0.00,306.000000,,2014-08-27 23:12:00,
2014-08-27 19:34:00,86.0,72.0,-100.00,North,350,5.0,11.0,63,0.00,,,0.00,306.000000,,2014-08-27 23:34:00,
2014-08-27 20:12:00,83.0,76.0,-100.00,NNW,332,2.0,7.0,79,0.00,,,0.00,125.000000,,2014-08-28 00:12:00,
2014-08-27 20:32:00,83.0,76.0,-100.00,NNW,332,2.0,7.0,79,0.00,,,0.00,125.000000,,2014-08-28 00:32:00,
2014-08-27 20:43:00,83.0,76.0,-100.00,NNW,332,2.0,7.0,79,0.00,,,0.00,125.000000,,2014-08-28 00:43:00,
2014-08-27 21:22:00,76.0,75.0,-100.00,West,267,2.0,2.0,96,0.00,,,0.00,7.000000,,2014-08-28 01:22:00,
2014-08-27 21:44:00,76.0,75.0,-100.00,West,267,2.0,2.0,96,0.00,,,0.00,7.000000,,2014-08-28 01:44:00,
2014-08-27 22:12:00,74.0,73.0,-100.00,NW,316,1.0,2.0,98,0.00,,,0.00,0.000000,,2014-08-28 02:12:00,
2014-08-27 22:22:00,74.0,73.0,-100.00,NW,316,1.0,2.0,98,0.00,,,0.00,0.000000,,2014-08-28 02:22:00,
2014-08-27 22:32:00,74.0,73.0,-100.00,NW,316,1.0,2.0,98,0.00,,,0.00,0.000000,,2014-08-28 02:32:00,
2014-08-27 23:11:00,75.0,73.0,-100.00,NE,39,1.0,6.0,92,0.00,,,0.00,0.000000,,2014-08-28 03:11:00,